sensor_id;sensor_type;location;lat;lon;timestamp;P1;durP1;ratioP1;P2;durP2;ratioP2
39554;SDS011;25231;48.746;9.234;2023-02-12T00:02:13;33.70;;;25.20;;
39554;SDS011;25231;48.746;9.234;2023-02-12T00:04:39;36.87;;;26.47;;
39554;SDS011;25231;48.746;9.234;2023-02-12T00:07:04;33.83;;;25.13;;
39554;SDS011;25231;48.746;9.234;2023-02-12T00:09:30;32.33;;;24.90;;
39554;SDS011;25231;48.746;9.234;2023-02-12T00:11:55;33.33;;;26.27;;
39554;SDS011;25231;48.746;9.234;2023-02-12T00:14:20;33.10;;;25.70;;
39554;SDS011;25231;48.746;9.234;2023-02-12T00:16:46;34.10;;;26.67;;
39554;SDS011;25231;48.746;9.234;2023-02-12T00:19:11;33.83;;;25.07;;
39554;SDS011;25231;48.746;9.234;2023-02-12T00:21:37;36.33;;;26.73;;
39554;SDS011;25231;48.746;9.234;2023-02-12T00:24:02;35.93;;;26.10;;
39554;SDS011;25231;48.746;9.234;2023-02-12T00:26:28;36.83;;;25.80;;
39554;SDS011;25231;48.746;9.234;2023-02-12T00:28:53;36.90;;;25.83;;
39554;SDS011;25231;48.746;9.234;2023-02-12T00:31:20;35.57;;;26.47;;
39554;SDS011;25231;48.746;9.234;2023-02-12T00:33:48;33.50;;;26.33;;
39554;SDS011;25231;48.746;9.234;2023-02-12T00:36:15;35.00;;;26.20;;
39554;SDS011;25231;48.746;9.234;2023-02-12T00:38:43;37.43;;;27.90;;
39554;SDS011;25231;48.746;9.234;2023-02-12T00:41:09;36.30;;;26.20;;
39554;SDS011;25231;48.746;9.234;2023-02-12T00:43:40;34.33;;;26.73;;
39554;SDS011;25231;48.746;9.234;2023-02-12T00:46:05;38.17;;;26.83;;
39554;SDS011;25231;48.746;9.234;2023-02-12T00:48:32;33.40;;;25.43;;
39554;SDS011;25231;48.746;9.234;2023-02-12T00:50:58;35.27;;;28.00;;
39554;SDS011;25231;48.746;9.234;2023-02-12T00:53:24;35.50;;;28.13;;
39554;SDS011;25231;48.746;9.234;2023-02-12T00:55:49;37.57;;;27.80;;
39554;SDS011;25231;48.746;9.234;2023-02-12T00:58:15;35.13;;;28.30;;
39554;SDS011;25231;48.746;9.234;2023-02-12T01:00:41;34.80;;;27.17;;
39554;SDS011;25231;48.746;9.234;2023-02-12T01:03:07;35.37;;;27.50;;
39554;SDS011;25231;48.746;9.234;2023-02-12T01:05:33;32.60;;;26.30;;
39554;SDS011;25231;48.746;9.234;2023-02-12T01:07:58;40.07;;;27.43;;
39554;SDS011;25231;48.746;9.234;2023-02-12T01:10:24;34.23;;;27.40;;
39554;SDS011;25231;48.746;9.234;2023-02-12T01:12:49;35.40;;;27.60;;
39554;SDS011;25231;48.746;9.234;2023-02-12T01:15:16;39.97;;;28.17;;
39554;SDS011;25231;48.746;9.234;2023-02-12T01:17:42;37.90;;;27.57;;
39554;SDS011;25231;48.746;9.234;2023-02-12T01:20:10;37.03;;;26.80;;
39554;SDS011;25231;48.746;9.234;2023-02-12T01:22:38;35.20;;;28.13;;
39554;SDS011;25231;48.746;9.234;2023-02-12T01:25:08;37.40;;;26.53;;
39554;SDS011;25231;48.746;9.234;2023-02-12T01:27:34;37.20;;;27.30;;
39554;SDS011;25231;48.746;9.234;2023-02-12T01:29:59;37.30;;;27.43;;
39554;SDS011;25231;48.746;9.234;2023-02-12T01:32:25;37.77;;;28.60;;
39554;SDS011;25231;48.746;9.234;2023-02-12T01:34:50;38.47;;;29.23;;
39554;SDS011;25231;48.746;9.234;2023-02-12T01:37:16;37.10;;;28.33;;
39554;SDS011;25231;48.746;9.234;2023-02-12T01:39:41;35.50;;;28.37;;
39554;SDS011;25231;48.746;9.234;2023-02-12T01:42:09;37.43;;;28.63;;
39554;SDS011;25231;48.746;9.234;2023-02-12T01:44:38;37.00;;;29.27;;
39554;SDS011;25231;48.746;9.234;2023-02-12T01:47:10;37.17;;;29.30;;
39554;SDS011;25231;48.746;9.234;2023-02-12T01:49:42;39.60;;;29.23;;
39554;SDS011;25231;48.746;9.234;2023-02-12T01:52:14;37.87;;;30.07;;
39554;SDS011;25231;48.746;9.234;2023-02-12T01:57:31;36.80;;;30.00;;
39554;SDS011;25231;48.746;9.234;2023-02-12T02:00:02;39.63;;;30.87;;
39554;SDS011;25231;48.746;9.234;2023-02-12T02:02:31;38.60;;;30.70;;
39554;SDS011;25231;48.746;9.234;2023-02-12T02:04:59;35.60;;;26.40;;
39554;SDS011;25231;48.746;9.234;2023-02-12T02:07:28;35.97;;;25.57;;
39554;SDS011;25231;48.746;9.234;2023-02-12T02:09:53;34.20;;;25.70;;
39554;SDS011;25231;48.746;9.234;2023-02-12T02:12:21;34.03;;;25.20;;
39554;SDS011;25231;48.746;9.234;2023-02-12T02:15:06;36.33;;;26.07;;
39554;SDS011;25231;48.746;9.234;2023-02-12T02:17:41;39.80;;;27.80;;
39554;SDS011;25231;48.746;9.234;2023-02-12T02:29:06;33.83;;;25.50;;
39554;SDS011;25231;48.746;9.234;2023-02-12T02:31:58;37.13;;;25.67;;
39554;SDS011;25231;48.746;9.234;2023-02-12T02:34:42;36.40;;;26.67;;
39554;SDS011;25231;48.746;9.234;2023-02-12T02:37:41;37.80;;;25.07;;
39554;SDS011;25231;48.746;9.234;2023-02-12T02:43:15;34.60;;;25.07;;
39554;SDS011;25231;48.746;9.234;2023-02-12T02:45:46;36.40;;;25.83;;
39554;SDS011;25231;48.746;9.234;2023-02-12T02:48:34;36.47;;;24.97;;
39554;SDS011;25231;48.746;9.234;2023-02-12T02:51:13;38.23;;;26.67;;
39554;SDS011;25231;48.746;9.234;2023-02-12T02:53:51;35.67;;;24.67;;
39554;SDS011;25231;48.746;9.234;2023-02-12T02:56:26;37.70;;;25.40;;
39554;SDS011;25231;48.746;9.234;2023-02-12T02:58:55;34.57;;;25.37;;
39554;SDS011;25231;48.746;9.234;2023-02-12T03:01:26;38.83;;;26.13;;
39554;SDS011;25231;48.746;9.234;2023-02-12T03:09:10;32.17;;;25.47;;
39554;SDS011;25231;48.746;9.234;2023-02-12T03:11:42;35.57;;;25.47;;
39554;SDS011;25231;48.746;9.234;2023-02-12T03:14:21;39.63;;;24.67;;
39554;SDS011;25231;48.746;9.234;2023-02-12T03:17:01;34.63;;;26.27;;
39554;SDS011;25231;48.746;9.234;2023-02-12T03:19:47;35.93;;;26.27;;
39554;SDS011;25231;48.746;9.234;2023-02-12T03:22:21;35.93;;;26.60;;
39554;SDS011;25231;48.746;9.234;2023-02-12T03:28:03;35.23;;;25.03;;
39554;SDS011;25231;48.746;9.234;2023-02-12T03:30:36;34.37;;;25.07;;
39554;SDS011;25231;48.746;9.234;2023-02-12T03:35:51;34.67;;;25.57;;
39554;SDS011;25231;48.746;9.234;2023-02-12T03:38:48;37.30;;;25.67;;
39554;SDS011;25231;48.746;9.234;2023-02-12T03:41:21;37.20;;;26.47;;
39554;SDS011;25231;48.746;9.234;2023-02-12T03:43:52;35.47;;;26.27;;
39554;SDS011;25231;48.746;9.234;2023-02-12T03:46:26;32.27;;;24.90;;
39554;SDS011;25231;48.746;9.234;2023-02-12T03:51:42;34.97;;;25.67;;
39554;SDS011;25231;48.746;9.234;2023-02-12T03:54:09;35.17;;;25.40;;
39554;SDS011;25231;48.746;9.234;2023-02-12T03:59:19;40.43;;;27.13;;
39554;SDS011;25231;48.746;9.234;2023-02-12T04:01:46;38.37;;;26.87;;
39554;SDS011;25231;48.746;9.234;2023-02-12T04:04:13;41.33;;;26.53;;
39554;SDS011;25231;48.746;9.234;2023-02-12T04:06:40;36.37;;;26.97;;
39554;SDS011;25231;48.746;9.234;2023-02-12T04:09:07;39.70;;;26.73;;
39554;SDS011;25231;48.746;9.234;2023-02-12T04:17:08;39.67;;;28.47;;
39554;SDS011;25231;48.746;9.234;2023-02-12T04:30:52;38.07;;;29.00;;
39554;SDS011;25231;48.746;9.234;2023-02-12T04:33:24;41.93;;;28.50;;
39554;SDS011;25231;48.746;9.234;2023-02-12T04:38:37;45.17;;;29.50;;
39554;SDS011;25231;48.746;9.234;2023-02-12T04:41:09;41.67;;;27.93;;
39554;SDS011;25231;48.746;9.234;2023-02-12T04:43:35;43.97;;;29.60;;
39554;SDS011;25231;48.746;9.234;2023-02-12T04:46:02;40.77;;;29.07;;
39554;SDS011;25231;48.746;9.234;2023-02-12T04:48:30;43.03;;;30.10;;
39554;SDS011;25231;48.746;9.234;2023-02-12T04:50:55;36.33;;;27.67;;
39554;SDS011;25231;48.746;9.234;2023-02-12T04:53:21;38.57;;;27.97;;
39554;SDS011;25231;48.746;9.234;2023-02-12T04:55:47;37.53;;;27.63;;
39554;SDS011;25231;48.746;9.234;2023-02-12T04:58:14;41.97;;;27.80;;
39554;SDS011;25231;48.746;9.234;2023-02-12T05:00:40;38.10;;;28.20;;
39554;SDS011;25231;48.746;9.234;2023-02-12T05:03:06;39.63;;;29.53;;
39554;SDS011;25231;48.746;9.234;2023-02-12T05:05:31;40.00;;;28.73;;
39554;SDS011;25231;48.746;9.234;2023-02-12T05:07:57;42.63;;;28.73;;
39554;SDS011;25231;48.746;9.234;2023-02-12T05:10:22;40.60;;;29.63;;
39554;SDS011;25231;48.746;9.234;2023-02-12T05:12:50;40.93;;;29.57;;
39554;SDS011;25231;48.746;9.234;2023-02-12T05:15:16;46.07;;;31.00;;
39554;SDS011;25231;48.746;9.234;2023-02-12T05:17:42;40.37;;;28.63;;
39554;SDS011;25231;48.746;9.234;2023-02-12T05:20:11;39.80;;;27.97;;
39554;SDS011;25231;48.746;9.234;2023-02-12T05:22:36;45.67;;;29.83;;
39554;SDS011;25231;48.746;9.234;2023-02-12T05:25:02;41.67;;;29.27;;
39554;SDS011;25231;48.746;9.234;2023-02-12T05:27:28;40.00;;;27.77;;
39554;SDS011;25231;48.746;9.234;2023-02-12T05:29:55;41.63;;;29.20;;
39554;SDS011;25231;48.746;9.234;2023-02-12T05:32:21;38.93;;;28.53;;
39554;SDS011;25231;48.746;9.234;2023-02-12T05:34:47;36.33;;;27.60;;
39554;SDS011;25231;48.746;9.234;2023-02-12T05:37:12;43.77;;;27.93;;
39554;SDS011;25231;48.746;9.234;2023-02-12T05:39:38;37.63;;;27.33;;
39554;SDS011;25231;48.746;9.234;2023-02-12T05:42:03;36.87;;;29.33;;
39554;SDS011;25231;48.746;9.234;2023-02-12T05:44:29;39.40;;;28.20;;
39554;SDS011;25231;48.746;9.234;2023-02-12T05:46:54;38.33;;;27.70;;
39554;SDS011;25231;48.746;9.234;2023-02-12T05:52:22;37.10;;;27.43;;
39554;SDS011;25231;48.746;9.234;2023-02-12T05:54:48;37.87;;;28.10;;
39554;SDS011;25231;48.746;9.234;2023-02-12T05:57:14;37.83;;;27.67;;
39554;SDS011;25231;48.746;9.234;2023-02-12T05:59:39;41.77;;;28.17;;
39554;SDS011;25231;48.746;9.234;2023-02-12T06:02:05;38.77;;;27.30;;
39554;SDS011;25231;48.746;9.234;2023-02-12T06:04:30;34.37;;;26.50;;
39554;SDS011;25231;48.746;9.234;2023-02-12T06:06:56;36.97;;;26.43;;
39554;SDS011;25231;48.746;9.234;2023-02-12T06:09:21;37.10;;;26.83;;
39554;SDS011;25231;48.746;9.234;2023-02-12T06:11:47;37.77;;;28.37;;
39554;SDS011;25231;48.746;9.234;2023-02-12T06:14:14;39.63;;;28.60;;
39554;SDS011;25231;48.746;9.234;2023-02-12T06:16:43;36.50;;;27.23;;
39554;SDS011;25231;48.746;9.234;2023-02-12T06:19:12;38.07;;;27.57;;
39554;SDS011;25231;48.746;9.234;2023-02-12T06:21:38;37.47;;;26.67;;
39554;SDS011;25231;48.746;9.234;2023-02-12T06:24:03;38.93;;;28.00;;
39554;SDS011;25231;48.746;9.234;2023-02-12T06:26:29;39.23;;;27.30;;
39554;SDS011;25231;48.746;9.234;2023-02-12T06:28:54;38.90;;;27.37;;
39554;SDS011;25231;48.746;9.234;2023-02-12T06:31:21;36.47;;;27.93;;
39554;SDS011;25231;48.746;9.234;2023-02-12T06:33:48;37.40;;;27.33;;
39554;SDS011;25231;48.746;9.234;2023-02-12T06:36:15;41.20;;;26.20;;
39554;SDS011;25231;48.746;9.234;2023-02-12T06:38:41;35.80;;;26.67;;
39554;SDS011;25231;48.746;9.234;2023-02-12T06:41:08;37.73;;;26.30;;
39554;SDS011;25231;48.746;9.234;2023-02-12T06:43:33;35.83;;;26.90;;
39554;SDS011;25231;48.746;9.234;2023-02-12T06:45:59;36.80;;;27.00;;
39554;SDS011;25231;48.746;9.234;2023-02-12T06:48:26;35.50;;;26.87;;
39554;SDS011;25231;48.746;9.234;2023-02-12T06:50:51;37.73;;;26.13;;
39554;SDS011;25231;48.746;9.234;2023-02-12T06:53:17;35.20;;;26.30;;
39554;SDS011;25231;48.746;9.234;2023-02-12T06:55:42;36.57;;;25.87;;
39554;SDS011;25231;48.746;9.234;2023-02-12T07:01:17;40.03;;;27.43;;
39554;SDS011;25231;48.746;9.234;2023-02-12T07:03:52;39.77;;;27.43;;
39554;SDS011;25231;48.746;9.234;2023-02-12T07:06:20;40.07;;;27.17;;
39554;SDS011;25231;48.746;9.234;2023-02-12T07:08:46;35.60;;;24.93;;
39554;SDS011;25231;48.746;9.234;2023-02-12T07:11:12;35.37;;;26.87;;
39554;SDS011;25231;48.746;9.234;2023-02-12T07:13:39;35.70;;;27.10;;
39554;SDS011;25231;48.746;9.234;2023-02-12T07:16:06;39.43;;;28.80;;
39554;SDS011;25231;48.746;9.234;2023-02-12T07:18:37;40.03;;;27.43;;
39554;SDS011;25231;48.746;9.234;2023-02-12T07:21:03;39.67;;;27.57;;
39554;SDS011;25231;48.746;9.234;2023-02-12T07:23:30;35.73;;;26.73;;
39554;SDS011;25231;48.746;9.234;2023-02-12T07:26:01;36.33;;;28.10;;
39554;SDS011;25231;48.746;9.234;2023-02-12T07:28:29;40.93;;;28.27;;
39554;SDS011;25231;48.746;9.234;2023-02-12T07:30:57;39.80;;;28.20;;
39554;SDS011;25231;48.746;9.234;2023-02-12T07:33:23;38.63;;;29.07;;
39554;SDS011;25231;48.746;9.234;2023-02-12T07:35:48;45.13;;;34.13;;
39554;SDS011;25231;48.746;9.234;2023-02-12T07:38:14;42.47;;;34.77;;
39554;SDS011;25231;48.746;9.234;2023-02-12T07:40:39;43.70;;;34.10;;
39554;SDS011;25231;48.746;9.234;2023-02-12T07:43:04;40.37;;;32.10;;
39554;SDS011;25231;48.746;9.234;2023-02-12T07:45:30;40.80;;;33.03;;
39554;SDS011;25231;48.746;9.234;2023-02-12T07:47:55;50.07;;;36.90;;
39554;SDS011;25231;48.746;9.234;2023-02-12T07:50:21;43.03;;;36.93;;
39554;SDS011;25231;48.746;9.234;2023-02-12T07:52:47;43.87;;;35.73;;
39554;SDS011;25231;48.746;9.234;2023-02-12T07:55:14;41.93;;;32.53;;
39554;SDS011;25231;48.746;9.234;2023-02-12T07:57:39;43.23;;;36.87;;
39554;SDS011;25231;48.746;9.234;2023-02-12T08:00:05;43.60;;;36.77;;
39554;SDS011;25231;48.746;9.234;2023-02-12T08:02:31;47.53;;;38.23;;
39554;SDS011;25231;48.746;9.234;2023-02-12T08:04:56;45.00;;;39.13;;
39554;SDS011;25231;48.746;9.234;2023-02-12T08:07:22;47.57;;;36.10;;
39554;SDS011;25231;48.746;9.234;2023-02-12T08:09:49;41.93;;;33.23;;
39554;SDS011;25231;48.746;9.234;2023-02-12T08:12:15;44.10;;;33.90;;
39554;SDS011;25231;48.746;9.234;2023-02-12T08:14:41;42.97;;;33.17;;
39554;SDS011;25231;48.746;9.234;2023-02-12T08:17:06;54.10;;;46.67;;
39554;SDS011;25231;48.746;9.234;2023-02-12T08:19:32;47.83;;;40.73;;
39554;SDS011;25231;48.746;9.234;2023-02-12T08:21:58;85.13;;;77.97;;
39554;SDS011;25231;48.746;9.234;2023-02-12T08:24:26;89.77;;;82.23;;
39554;SDS011;25231;48.746;9.234;2023-02-12T08:26:51;61.30;;;55.37;;
39554;SDS011;25231;48.746;9.234;2023-02-12T08:29:19;48.03;;;38.30;;
39554;SDS011;25231;48.746;9.234;2023-02-12T08:31:47;49.80;;;40.27;;
39554;SDS011;25231;48.746;9.234;2023-02-12T08:34:17;48.93;;;40.70;;
39554;SDS011;25231;48.746;9.234;2023-02-12T08:36:46;46.43;;;32.43;;
39554;SDS011;25231;48.746;9.234;2023-02-12T08:39:14;43.47;;;30.90;;
39554;SDS011;25231;48.746;9.234;2023-02-12T08:41:41;51.37;;;33.00;;
39554;SDS011;25231;48.746;9.234;2023-02-12T08:44:07;43.37;;;32.37;;
39554;SDS011;25231;48.746;9.234;2023-02-12T08:46:34;44.73;;;31.37;;
39554;SDS011;25231;48.746;9.234;2023-02-12T08:49:03;45.20;;;31.77;;
39554;SDS011;25231;48.746;9.234;2023-02-12T08:51:32;48.33;;;33.27;;
39554;SDS011;25231;48.746;9.234;2023-02-12T08:54:00;48.33;;;30.90;;
39554;SDS011;25231;48.746;9.234;2023-02-12T08:56:27;45.03;;;30.67;;
39554;SDS011;25231;48.746;9.234;2023-02-12T08:58:57;44.23;;;29.03;;
39554;SDS011;25231;48.746;9.234;2023-02-12T09:01:24;39.77;;;28.47;;
39554;SDS011;25231;48.746;9.234;2023-02-12T09:03:51;42.30;;;30.53;;
39554;SDS011;25231;48.746;9.234;2023-02-12T09:06:18;38.13;;;27.57;;
39554;SDS011;25231;48.746;9.234;2023-02-12T09:08:45;47.07;;;28.83;;
39554;SDS011;25231;48.746;9.234;2023-02-12T09:11:12;32.80;;;23.73;;
39554;SDS011;25231;48.746;9.234;2023-02-12T09:13:50;38.93;;;26.67;;
39554;SDS011;25231;48.746;9.234;2023-02-12T09:16:17;42.30;;;27.40;;
39554;SDS011;25231;48.746;9.234;2023-02-12T09:18:43;35.57;;;25.80;;
39554;SDS011;25231;48.746;9.234;2023-02-12T09:21:12;32.30;;;23.93;;
39554;SDS011;25231;48.746;9.234;2023-02-12T09:23:40;31.53;;;23.97;;
39554;SDS011;25231;48.746;9.234;2023-02-12T09:26:08;32.80;;;23.57;;
39554;SDS011;25231;48.746;9.234;2023-02-12T09:28:35;28.40;;;20.53;;
39554;SDS011;25231;48.746;9.234;2023-02-12T09:31:12;26.73;;;19.97;;
39554;SDS011;25231;48.746;9.234;2023-02-12T09:33:40;24.53;;;19.03;;
39554;SDS011;25231;48.746;9.234;2023-02-12T09:36:10;24.80;;;19.80;;
39554;SDS011;25231;48.746;9.234;2023-02-12T09:38:38;22.90;;;17.67;;
39554;SDS011;25231;48.746;9.234;2023-02-12T09:46:29;26.67;;;19.83;;
39554;SDS011;25231;48.746;9.234;2023-02-12T09:51:23;21.87;;;18.83;;
39554;SDS011;25231;48.746;9.234;2023-02-12T09:53:51;19.30;;;17.30;;
39554;SDS011;25231;48.746;9.234;2023-02-12T09:56:25;20.20;;;17.43;;
39554;SDS011;25231;48.746;9.234;2023-02-12T09:58:59;21.47;;;19.23;;
39554;SDS011;25231;48.746;9.234;2023-02-12T10:01:28;18.87;;;16.97;;
39554;SDS011;25231;48.746;9.234;2023-02-12T10:03:54;18.80;;;16.50;;
39554;SDS011;25231;48.746;9.234;2023-02-12T10:11:53;20.00;;;17.90;;
39554;SDS011;25231;48.746;9.234;2023-02-12T10:14:33;18.43;;;16.63;;
39554;SDS011;25231;48.746;9.234;2023-02-12T10:20:44;19.87;;;18.10;;
39554;SDS011;25231;48.746;9.234;2023-02-12T10:28:19;18.97;;;17.00;;
39554;SDS011;25231;48.746;9.234;2023-02-12T10:30:50;18.37;;;16.67;;
39554;SDS011;25231;48.746;9.234;2023-02-12T10:33:29;18.33;;;16.40;;
39554;SDS011;25231;48.746;9.234;2023-02-12T10:36:03;17.47;;;15.87;;
39554;SDS011;25231;48.746;9.234;2023-02-12T10:41:38;16.27;;;14.57;;
39554;SDS011;25231;48.746;9.234;2023-02-12T10:44:09;17.90;;;16.50;;
39554;SDS011;25231;48.746;9.234;2023-02-12T10:46:35;17.07;;;15.57;;
39554;SDS011;25231;48.746;9.234;2023-02-12T10:49:01;17.17;;;15.73;;
39554;SDS011;25231;48.746;9.234;2023-02-12T10:51:35;13.33;;;12.13;;
39554;SDS011;25231;48.746;9.234;2023-02-12T10:59:48;10.97;;;10.00;;
39554;SDS011;25231;48.746;9.234;2023-02-12T11:02:19;15.63;;;14.53;;
39554;SDS011;25231;48.746;9.234;2023-02-12T11:04:45;10.03;;;9.13;;
39554;SDS011;25231;48.746;9.234;2023-02-12T11:07:11;8.70;;;7.80;;
39554;SDS011;25231;48.746;9.234;2023-02-12T11:12:29;11.17;;;10.20;;
39554;SDS011;25231;48.746;9.234;2023-02-12T11:15:00;10.30;;;9.33;;
39554;SDS011;25231;48.746;9.234;2023-02-12T11:17:38;11.37;;;10.47;;
39554;SDS011;25231;48.746;9.234;2023-02-12T11:22:48;10.37;;;8.00;;
39554;SDS011;25231;48.746;9.234;2023-02-12T11:25:14;9.87;;;8.87;;
39554;SDS011;25231;48.746;9.234;2023-02-12T11:27:41;9.40;;;8.10;;
39554;SDS011;25231;48.746;9.234;2023-02-12T11:30:17;45.13;;;20.73;;
39554;SDS011;25231;48.746;9.234;2023-02-12T11:32:44;11.10;;;9.97;;
39554;SDS011;25231;48.746;9.234;2023-02-12T11:35:23;11.97;;;10.83;;
39554;SDS011;25231;48.746;9.234;2023-02-12T11:37:53;15.80;;;14.43;;
39554;SDS011;25231;48.746;9.234;2023-02-12T11:40:24;15.60;;;14.30;;
39554;SDS011;25231;48.746;9.234;2023-02-12T11:42:53;11.37;;;10.33;;
39554;SDS011;25231;48.746;9.234;2023-02-12T11:45:25;10.47;;;9.37;;
39554;SDS011;25231;48.746;9.234;2023-02-12T11:47:57;13.33;;;12.03;;
39554;SDS011;25231;48.746;9.234;2023-02-12T11:50:25;14.77;;;13.47;;
39554;SDS011;25231;48.746;9.234;2023-02-12T11:52:55;13.63;;;12.43;;
39554;SDS011;25231;48.746;9.234;2023-02-12T11:55:24;16.80;;;15.30;;
39554;SDS011;25231;48.746;9.234;2023-02-12T11:57:52;16.77;;;15.47;;
39554;SDS011;25231;48.746;9.234;2023-02-12T12:00:29;17.10;;;15.70;;
39554;SDS011;25231;48.746;9.234;2023-02-12T12:03:12;14.17;;;12.67;;
39554;SDS011;25231;48.746;9.234;2023-02-12T12:05:53;11.00;;;9.93;;
39554;SDS011;25231;48.746;9.234;2023-02-12T12:08:28;9.87;;;8.97;;
39554;SDS011;25231;48.746;9.234;2023-02-12T12:11:12;10.57;;;9.43;;
39554;SDS011;25231;48.746;9.234;2023-02-12T12:13:46;9.00;;;8.03;;
39554;SDS011;25231;48.746;9.234;2023-02-12T12:16:21;9.10;;;8.20;;
39554;SDS011;25231;48.746;9.234;2023-02-12T12:19:14;12.57;;;11.40;;
39554;SDS011;25231;48.746;9.234;2023-02-12T12:22:19;10.53;;;9.53;;
39554;SDS011;25231;48.746;9.234;2023-02-12T12:25:15;10.80;;;9.80;;
39554;SDS011;25231;48.746;9.234;2023-02-12T12:27:57;11.90;;;9.17;;
39554;SDS011;25231;48.746;9.234;2023-02-12T12:30:36;11.43;;;10.30;;
39554;SDS011;25231;48.746;9.234;2023-02-12T12:33:28;13.03;;;11.93;;
39554;SDS011;25231;48.746;9.234;2023-02-12T12:47:20;10.60;;;9.50;;
39554;SDS011;25231;48.746;9.234;2023-02-12T12:52:30;11.37;;;10.27;;
39554;SDS011;25231;48.746;9.234;2023-02-12T12:55:26;10.50;;;9.43;;
39554;SDS011;25231;48.746;9.234;2023-02-12T13:06:20;14.17;;;12.87;;
39554;SDS011;25231;48.746;9.234;2023-02-12T13:09:28;15.60;;;14.20;;
39554;SDS011;25231;48.746;9.234;2023-02-12T13:14:59;9.97;;;8.97;;
39554;SDS011;25231;48.746;9.234;2023-02-12T13:20:46;8.73;;;7.83;;
39554;SDS011;25231;48.746;9.234;2023-02-12T13:29:11;8.60;;;7.70;;
39554;SDS011;25231;48.746;9.234;2023-02-12T13:32:04;13.80;;;8.23;;
39554;SDS011;25231;48.746;9.234;2023-02-12T13:34:30;8.43;;;7.63;;
39554;SDS011;25231;48.746;9.234;2023-02-12T13:36:59;7.93;;;7.23;;
39554;SDS011;25231;48.746;9.234;2023-02-12T13:39:39;7.90;;;7.17;;
39554;SDS011;25231;48.746;9.234;2023-02-12T13:44:44;7.40;;;6.80;;
39554;SDS011;25231;48.746;9.234;2023-02-12T13:53:05;7.17;;;6.43;;
39554;SDS011;25231;48.746;9.234;2023-02-12T13:58:51;8.37;;;7.63;;
39554;SDS011;25231;48.746;9.234;2023-02-12T14:01:34;7.30;;;6.70;;
39554;SDS011;25231;48.746;9.234;2023-02-12T14:06:59;6.17;;;5.67;;
39554;SDS011;25231;48.746;9.234;2023-02-12T14:09:30;6.10;;;5.60;;
39554;SDS011;25231;48.746;9.234;2023-02-12T14:11:59;7.17;;;6.57;;
39554;SDS011;25231;48.746;9.234;2023-02-12T14:14:45;10.47;;;9.67;;
39554;SDS011;25231;48.746;9.234;2023-02-12T14:27:44;13.90;;;13.00;;
39554;SDS011;25231;48.746;9.234;2023-02-12T14:37:52;6.40;;;5.37;;
39554;SDS011;25231;48.746;9.234;2023-02-12T14:43:23;7.80;;;7.13;;
39554;SDS011;25231;48.746;9.234;2023-02-12T14:45:51;6.93;;;6.23;;
39554;SDS011;25231;48.746;9.234;2023-02-12T14:51:15;6.50;;;5.90;;
39554;SDS011;25231;48.746;9.234;2023-02-12T14:53:46;5.80;;;5.30;;
39554;SDS011;25231;48.746;9.234;2023-02-12T14:56:17;6.10;;;5.53;;
39554;SDS011;25231;48.746;9.234;2023-02-12T14:58:46;5.57;;;5.17;;
39554;SDS011;25231;48.746;9.234;2023-02-12T15:01:13;5.57;;;5.17;;
39554;SDS011;25231;48.746;9.234;2023-02-12T15:03:40;6.40;;;5.80;;
39554;SDS011;25231;48.746;9.234;2023-02-12T15:06:14;5.63;;;5.20;;
39554;SDS011;25231;48.746;9.234;2023-02-12T15:08:44;6.00;;;5.50;;
39554;SDS011;25231;48.746;9.234;2023-02-12T15:13:52;6.03;;;5.60;;
39554;SDS011;25231;48.746;9.234;2023-02-12T15:19:13;6.27;;;5.80;;
39554;SDS011;25231;48.746;9.234;2023-02-12T15:21:41;6.97;;;6.37;;
39554;SDS011;25231;48.746;9.234;2023-02-12T15:24:11;13.00;;;12.10;;
39554;SDS011;25231;48.746;9.234;2023-02-12T15:26:39;6.97;;;6.47;;
39554;SDS011;25231;48.746;9.234;2023-02-12T15:29:15;5.90;;;5.50;;
39554;SDS011;25231;48.746;9.234;2023-02-12T15:32:04;6.10;;;5.60;;
39554;SDS011;25231;48.746;9.234;2023-02-12T15:34:32;6.17;;;5.67;;
39554;SDS011;25231;48.746;9.234;2023-02-12T15:37:02;6.67;;;5.60;;
39554;SDS011;25231;48.746;9.234;2023-02-12T15:39:47;6.53;;;6.03;;
39554;SDS011;25231;48.746;9.234;2023-02-12T15:42:31;6.40;;;5.90;;
39554;SDS011;25231;48.746;9.234;2023-02-12T15:47:40;7.90;;;7.30;;
39554;SDS011;25231;48.746;9.234;2023-02-12T15:50:14;10.23;;;9.53;;
39554;SDS011;25231;48.746;9.234;2023-02-12T15:52:41;13.87;;;12.93;;
39554;SDS011;25231;48.746;9.234;2023-02-12T15:55:27;9.33;;;8.73;;
39554;SDS011;25231;48.746;9.234;2023-02-12T15:57:58;7.93;;;7.43;;
39554;SDS011;25231;48.746;9.234;2023-02-12T16:00:29;6.80;;;6.30;;
39554;SDS011;25231;48.746;9.234;2023-02-12T16:03:03;5.97;;;5.57;;
39554;SDS011;25231;48.746;9.234;2023-02-12T16:05:29;7.07;;;6.47;;
39554;SDS011;25231;48.746;9.234;2023-02-12T16:07:56;6.70;;;6.20;;
39554;SDS011;25231;48.746;9.234;2023-02-12T16:10:22;6.40;;;5.80;;
39554;SDS011;25231;48.746;9.234;2023-02-12T16:12:49;6.00;;;5.50;;
39554;SDS011;25231;48.746;9.234;2023-02-12T16:15:30;5.30;;;4.90;;
39554;SDS011;25231;48.746;9.234;2023-02-12T16:17:58;6.63;;;6.13;;
39554;SDS011;25231;48.746;9.234;2023-02-12T16:20:28;7.37;;;6.67;;
39554;SDS011;25231;48.746;9.234;2023-02-12T16:22:55;6.57;;;6.07;;
39554;SDS011;25231;48.746;9.234;2023-02-12T16:25:22;7.60;;;7.00;;
39554;SDS011;25231;48.746;9.234;2023-02-12T16:32:50;10.10;;;9.00;;
39554;SDS011;25231;48.746;9.234;2023-02-12T16:37:43;7.63;;;6.93;;
39554;SDS011;25231;48.746;9.234;2023-02-12T16:42:36;7.97;;;6.87;;
39554;SDS011;25231;48.746;9.234;2023-02-12T16:48:06;8.13;;;7.37;;
39554;SDS011;25231;48.746;9.234;2023-02-12T16:50:57;9.40;;;8.47;;
39554;SDS011;25231;48.746;9.234;2023-02-12T16:55:53;8.43;;;7.63;;
39554;SDS011;25231;48.746;9.234;2023-02-12T16:58:19;8.50;;;7.70;;
39554;SDS011;25231;48.746;9.234;2023-02-12T17:00:44;9.13;;;7.67;;
39554;SDS011;25231;48.746;9.234;2023-02-12T17:03:14;7.90;;;7.07;;
39554;SDS011;25231;48.746;9.234;2023-02-12T17:05:41;9.43;;;8.43;;
39554;SDS011;25231;48.746;9.234;2023-02-12T17:08:12;9.80;;;8.77;;
39554;SDS011;25231;48.746;9.234;2023-02-12T17:10:39;8.80;;;8.00;;
39554;SDS011;25231;48.746;9.234;2023-02-12T17:13:04;10.13;;;9.03;;
39554;SDS011;25231;48.746;9.234;2023-02-12T17:15:36;10.27;;;8.70;;
39554;SDS011;25231;48.746;9.234;2023-02-12T17:18:09;10.07;;;9.17;;
39554;SDS011;25231;48.746;9.234;2023-02-12T17:20:36;10.60;;;9.50;;
39554;SDS011;25231;48.746;9.234;2023-02-12T17:23:02;9.13;;;8.23;;
39554;SDS011;25231;48.746;9.234;2023-02-12T17:25:28;9.33;;;8.33;;
39554;SDS011;25231;48.746;9.234;2023-02-12T17:27:54;9.97;;;8.97;;
39554;SDS011;25231;48.746;9.234;2023-02-12T17:30:20;10.43;;;9.27;;
39554;SDS011;25231;48.746;9.234;2023-02-12T17:32:48;10.23;;;9.20;;
39554;SDS011;25231;48.746;9.234;2023-02-12T17:35:13;9.73;;;8.73;;
39554;SDS011;25231;48.746;9.234;2023-02-12T17:37:39;11.53;;;9.60;;
39554;SDS011;25231;48.746;9.234;2023-02-12T17:40:04;13.00;;;10.17;;
39554;SDS011;25231;48.746;9.234;2023-02-12T17:42:31;11.83;;;10.63;;
39554;SDS011;25231;48.746;9.234;2023-02-12T17:44:57;13.50;;;10.47;;
39554;SDS011;25231;48.746;9.234;2023-02-12T17:47:22;10.73;;;9.70;;
39554;SDS011;25231;48.746;9.234;2023-02-12T17:49:48;11.20;;;10.07;;
39554;SDS011;25231;48.746;9.234;2023-02-12T17:52:13;10.80;;;9.57;;
39554;SDS011;25231;48.746;9.234;2023-02-12T17:54:39;12.37;;;10.43;;